createdAt,value
2022-08-24T00:00:07.380Z,26.28
2022-08-24T00:01:09.261Z,26.26
2022-08-24T00:02:11.881Z,26.26
2022-08-24T00:03:14.020Z,26.24
2022-08-24T00:04:16.225Z,26.21
2022-08-24T00:05:21.219Z,26.20
2022-08-24T00:06:23.271Z,26.19
2022-08-24T00:07:27.891Z,26.18
2022-08-24T00:08:29.715Z,26.15
2022-08-24T00:09:32.397Z,26.13
2022-08-24T00:10:33.948Z,26.09
2022-08-24T00:11:35.518Z,26.08
2022-08-24T00:12:37.147Z,26.07
2022-08-24T00:13:39.571Z,26.06
2022-08-24T00:14:41.314Z,26.05
2022-08-24T00:15:45.264Z,26.03
2022-08-24T00:16:46.862Z,26.02
2022-08-24T00:17:48.487Z,26.01
2022-08-24T00:18:49.979Z,26.00
2022-08-24T00:19:51.573Z,25.99
2022-08-24T00:20:53.355Z,25.99
2022-08-24T00:21:54.859Z,25.98
2022-08-24T00:22:56.402Z,25.94
2022-08-24T00:23:57.984Z,25.94
2022-08-24T00:25:03.519Z,25.93
2022-08-24T00:26:05.294Z,25.91
2022-08-24T00:27:07.089Z,25.90
2022-08-24T00:28:08.675Z,25.72
2022-08-24T00:29:10.237Z,25.87
2022-08-24T00:30:12.691Z,25.85
2022-08-24T00:31:14.263Z,25.84
2022-08-24T00:32:15.839Z,25.81
2022-08-24T00:33:17.432Z,25.80
2022-08-24T00:34:19.179Z,25.78
2022-08-24T00:35:20.750Z,25.77
2022-08-24T00:36:22.690Z,25.74
2022-08-24T00:37:24.877Z,25.73
2022-08-24T00:38:27.849Z,25.73
2022-08-24T00:39:31.443Z,25.71
2022-08-24T00:40:34.103Z,25.69
2022-08-24T00:41:35.853Z,25.68
2022-08-24T00:42:38.925Z,25.68
2022-08-24T00:43:40.644Z,25.67
2022-08-24T00:44:42.155Z,25.66
2022-08-24T00:45:48.738Z,25.62
2022-08-24T00:46:58.167Z,25.60
2022-08-24T00:48:00.711Z,25.60
2022-08-24T00:49:03.630Z,25.61
2022-08-24T00:50:06.887Z,25.60
2022-08-24T00:51:13.655Z,25.59
2022-08-24T00:52:17.336Z,25.61
2022-08-24T00:53:29.140Z,25.61
2022-08-24T00:54:31.610Z,25.61
2022-08-24T00:55:34.487Z,25.61
2022-08-24T00:56:37.545Z,25.61
2022-08-24T00:57:39.931Z,25.60
2022-08-24T00:58:56.963Z,25.58
2022-08-24T01:00:01.062Z,25.58
2022-08-24T01:01:03.516Z,25.57
2022-08-24T01:02:15.657Z,25.56
2022-08-24T01:03:17.884Z,25.54
2022-08-24T01:04:22.796Z,25.53
2022-08-24T01:05:24.291Z,25.52
2022-08-24T01:06:25.923Z,25.51
2022-08-24T01:07:29.256Z,25.49
2022-08-24T01:08:30.774Z,25.45
2022-08-24T01:09:32.374Z,25.43
2022-08-24T01:10:38.355Z,25.42
2022-08-24T01:11:40.451Z,25.39
2022-08-24T01:12:42.563Z,25.39
2022-08-24T01:14:02.032Z,25.36
2022-08-24T01:15:04.631Z,25.36
2022-08-24T01:16:07.321Z,25.35
2022-08-24T01:17:27.518Z,25.35
2022-08-24T01:18:47.792Z,25.33
2022-08-24T01:19:51.049Z,25.32
2022-08-24T01:21:03.035Z,25.32
2022-08-24T01:22:07.815Z,25.29
2022-08-24T01:23:28.491Z,25.29
2022-08-24T01:24:37.708Z,25.27
2022-08-24T01:25:39.259Z,25.26
2022-08-24T01:26:48.942Z,25.17
2022-08-24T01:27:50.582Z,25.22
2022-08-24T01:28:52.682Z,25.20
2022-08-24T01:29:54.182Z,25.19
2022-08-24T01:30:56.102Z,25.18
2022-08-24T01:31:58.038Z,25.17
2022-08-24T01:33:00.368Z,25.16
2022-08-24T01:34:02.166Z,25.16
2022-08-24T01:35:06.832Z,25.15
2022-08-24T01:36:20.194Z,25.12
2022-08-24T01:37:22.656Z,25.11
2022-08-24T01:38:24.221Z,25.12
2022-08-24T01:39:26.919Z,25.10
2022-08-24T01:40:33.155Z,25.07
2022-08-24T01:41:34.686Z,25.08
2022-08-24T01:42:37.031Z,25.08
2022-08-24T01:43:38.580Z,25.07
2022-08-24T01:44:42.291Z,25.07
2022-08-24T01:45:43.882Z,25.06
2022-08-24T01:46:45.994Z,25.06
2022-08-24T01:47:47.574Z,25.03
2022-08-24T01:48:49.075Z,25.00
2022-08-24T01:49:51.474Z,25.00
2022-08-24T01:50:56.003Z,24.95
2022-08-24T01:51:57.914Z,24.94
2022-08-24T01:53:05.377Z,24.91
2022-08-24T01:54:07.514Z,24.90
2022-08-24T01:55:13.287Z,24.88
2022-08-24T01:56:16.682Z,24.88
2022-08-24T01:57:18.335Z,24.87
2022-08-24T01:58:20.038Z,24.85
2022-08-24T01:59:22.309Z,24.84
2022-08-24T02:00:23.941Z,24.83
2022-08-24T02:01:26.524Z,24.83
2022-08-24T02:02:28.995Z,24.79
2022-08-24T02:03:31.115Z,24.79
2022-08-24T02:04:34.585Z,24.78
2022-08-24T02:05:36.464Z,24.78
2022-08-24T02:06:38.203Z,24.77
2022-08-24T02:07:42.651Z,24.77
2022-08-24T02:08:47.085Z,24.77
2022-08-24T02:09:50.147Z,24.77
2022-08-24T02:10:56.473Z,24.76
2022-08-24T02:11:58.895Z,24.76
2022-08-24T02:13:00.595Z,24.75
2022-08-24T02:14:02.240Z,24.75
2022-08-24T02:15:05.367Z,24.75
2022-08-24T02:16:07.139Z,24.75
2022-08-24T02:17:09.682Z,24.73
2022-08-24T02:18:15.825Z,24.72
2022-08-24T02:19:18.148Z,24.71
2022-08-24T02:20:21.560Z,24.70
2022-08-24T02:21:24.016Z,24.69
2022-08-24T02:22:31.438Z,24.70
2022-08-24T02:23:33.734Z,24.68
2022-08-24T02:24:35.304Z,24.67
2022-08-24T02:25:36.833Z,24.68
2022-08-24T02:26:38.497Z,24.65
2022-08-24T02:27:40.142Z,24.65
2022-08-24T02:28:42.761Z,24.64
2022-08-24T02:29:44.598Z,24.63
2022-08-24T02:30:47.210Z,24.62
2022-08-24T02:31:48.858Z,24.62
2022-08-24T02:32:50.582Z,24.61
2022-08-24T02:33:52.228Z,24.60
2022-08-24T02:34:54.880Z,24.61
2022-08-24T02:35:57.015Z,24.61
2022-08-24T02:36:58.699Z,24.60
2022-08-24T02:38:00.421Z,24.60
2022-08-24T02:39:03.448Z,24.60
2022-08-24T02:40:07.652Z,24.58
2022-08-24T02:41:10.746Z,24.58
2022-08-24T02:42:12.527Z,24.57
2022-08-24T02:43:14.011Z,24.56
2022-08-24T02:44:16.164Z,24.56
2022-08-24T02:45:17.991Z,24.54
2022-08-24T02:46:22.338Z,24.53
2022-08-24T02:47:37.981Z,24.53
2022-08-24T02:48:40.830Z,24.52
2022-08-24T02:49:42.419Z,24.51
2022-08-24T02:50:45.046Z,24.50
2022-08-24T02:51:46.897Z,24.48
2022-08-24T02:52:52.370Z,24.47
2022-08-24T02:53:54.419Z,24.45
2022-08-24T02:54:57.538Z,24.43
2022-08-24T02:55:59.075Z,24.41
2022-08-24T02:57:00.699Z,24.39
2022-08-24T02:58:02.534Z,24.40
2022-08-24T02:59:04.051Z,24.36
2022-08-24T03:00:10.075Z,24.34
2022-08-24T03:01:13.733Z,24.30
2022-08-24T03:02:19.777Z,24.27
2022-08-24T03:03:21.348Z,24.23
2022-08-24T03:04:22.923Z,24.21
2022-08-24T03:05:24.460Z,24.19
2022-08-24T03:06:26.008Z,24.17
2022-08-24T03:07:28.254Z,24.13
2022-08-24T03:08:29.746Z,24.12
2022-08-24T03:09:31.415Z,24.11
2022-08-24T03:10:33.427Z,24.10
2022-08-24T03:11:36.561Z,24.03
2022-08-24T03:12:38.475Z,23.99
2022-08-24T03:13:40.025Z,23.97
2022-08-24T03:14:41.665Z,23.95
2022-08-24T03:15:43.241Z,23.94
2022-08-24T03:16:45.392Z,23.90
2022-08-24T03:17:46.987Z,23.91
2022-08-24T03:18:48.541Z,23.90
2022-08-24T03:19:50.647Z,23.87
2022-08-24T03:20:53.026Z,23.83
2022-08-24T03:21:55.187Z,23.80
2022-08-24T03:22:56.682Z,23.81
2022-08-24T03:23:58.441Z,23.78
2022-08-24T03:24:59.992Z,23.78
2022-08-24T03:26:02.026Z,23.77
2022-08-24T03:27:06.291Z,23.77
2022-08-24T03:28:11.159Z,23.77
2022-08-24T03:29:15.827Z,23.77
2022-08-24T03:30:18.249Z,23.76
2022-08-24T03:31:20.659Z,23.76
2022-08-24T03:32:23.638Z,23.75
2022-08-24T03:33:25.191Z,23.75
2022-08-24T03:34:26.746Z,23.70
2022-08-24T03:35:28.560Z,23.69
2022-08-24T03:36:30.619Z,23.67
2022-08-24T03:37:32.865Z,23.67
2022-08-24T03:38:34.410Z,23.65
2022-08-24T03:39:35.945Z,23.67
2022-08-24T03:40:37.533Z,23.66
2022-08-24T03:41:39.198Z,23.65
2022-08-24T03:42:40.691Z,23.67
2022-08-24T03:43:46.392Z,23.67
2022-08-24T03:44:49.290Z,23.68
2022-08-24T03:45:51.667Z,23.68
2022-08-24T03:46:53.503Z,23.68
2022-08-24T03:47:56.775Z,23.66
2022-08-24T03:48:58.538Z,23.67
2022-08-24T03:50:00.050Z,23.67
2022-08-24T03:51:04.527Z,23.65
2022-08-24T03:52:06.388Z,23.66
2022-08-24T03:53:08.192Z,23.67
2022-08-24T03:54:10.907Z,23.67
2022-08-24T03:55:13.296Z,23.67
2022-08-24T03:56:16.961Z,23.67
2022-08-24T03:57:18.516Z,23.67
2022-08-24T03:58:20.007Z,23.67
2022-08-24T03:59:21.582Z,23.66
2022-08-24T04:00:25.980Z,23.67
2022-08-24T04:01:32.233Z,23.65
2022-08-24T04:02:34.091Z,23.64
2022-08-24T04:03:37.038Z,23.64
2022-08-24T04:04:38.592Z,23.66
2022-08-24T04:05:40.336Z,23.65
2022-08-24T04:06:44.476Z,23.63
2022-08-24T04:07:46.612Z,23.64
2022-08-24T04:08:48.267Z,23.62
2022-08-24T04:09:50.000Z,23.62
2022-08-24T04:10:51.560Z,23.62
2022-08-24T04:11:54.436Z,23.61
2022-08-24T04:13:01.603Z,23.63
2022-08-24T04:14:04.302Z,23.60
2022-08-24T04:15:06.231Z,23.49
2022-08-24T04:16:08.749Z,23.60
2022-08-24T04:17:12.503Z,23.59
2022-08-24T04:18:17.451Z,23.60
2022-08-24T04:19:19.023Z,23.60
2022-08-24T04:20:20.602Z,23.59
2022-08-24T04:21:26.411Z,23.58
2022-08-24T04:22:28.545Z,23.59
2022-08-24T04:23:47.519Z,23.58
2022-08-24T04:24:51.414Z,23.59
2022-08-24T04:25:53.009Z,23.58
2022-08-24T04:26:54.886Z,23.59
2022-08-24T04:27:56.417Z,23.58
2022-08-24T04:28:57.988Z,23.59
2022-08-24T04:30:00.362Z,23.59
2022-08-24T04:31:07.661Z,23.58
2022-08-24T04:32:16.344Z,23.58
2022-08-24T04:33:18.157Z,23.58
2022-08-24T04:34:19.726Z,23.57
2022-08-24T04:35:21.711Z,23.57
2022-08-24T04:36:23.487Z,23.57
2022-08-24T04:37:27.991Z,23.56
2022-08-24T04:38:31.622Z,23.56
2022-08-24T04:39:51.151Z,23.54
2022-08-24T04:41:00.169Z,23.54
2022-08-24T04:42:03.199Z,23.55
2022-08-24T04:43:10.072Z,23.55
2022-08-24T04:44:12.635Z,23.54
2022-08-24T04:45:14.232Z,23.55
2022-08-24T04:46:16.530Z,23.54
2022-08-24T04:47:18.802Z,23.54
2022-08-24T04:48:20.418Z,23.54
2022-08-24T04:49:22.093Z,23.55
2022-08-24T04:50:23.634Z,23.55
2022-08-24T04:51:26.023Z,23.55
2022-08-24T04:52:28.335Z,23.55
2022-08-24T04:53:29.842Z,23.55
2022-08-24T04:54:32.266Z,23.56
2022-08-24T04:55:51.829Z,23.55
2022-08-24T04:56:53.710Z,23.56
2022-08-24T04:57:55.240Z,23.56
2022-08-24T04:58:56.738Z,23.56
2022-08-24T04:59:58.956Z,23.56
2022-08-24T05:01:00.601Z,23.56
2022-08-24T05:02:02.249Z,23.56
2022-08-24T05:03:04.094Z,23.56
2022-08-24T05:04:05.773Z,23.56
2022-08-24T05:05:08.086Z,23.56
2022-08-24T05:06:11.085Z,23.56
2022-08-24T05:07:12.890Z,23.56
2022-08-24T05:08:17.315Z,23.56
2022-08-24T05:09:18.875Z,23.56
2022-08-24T05:10:21.617Z,23.57
2022-08-24T05:11:23.469Z,23.57
2022-08-24T05:12:25.433Z,23.56
2022-08-24T05:13:34.475Z,23.54
2022-08-24T05:14:36.589Z,23.52
2022-08-24T05:15:40.998Z,23.51
2022-08-24T05:16:45.787Z,23.53
2022-08-24T05:17:54.757Z,23.53
2022-08-24T05:18:56.465Z,23.58
2022-08-24T05:19:58.511Z,23.58
2022-08-24T05:21:00.091Z,23.59
2022-08-24T05:22:01.783Z,23.60
2022-08-24T05:23:04.803Z,23.61
2022-08-24T05:24:09.488Z,23.63
2022-08-24T05:25:11.074Z,23.66
2022-08-24T05:26:14.806Z,23.68
2022-08-24T05:27:16.620Z,23.70
2022-08-24T05:28:20.732Z,23.71
2022-08-24T05:29:22.823Z,23.72
2022-08-24T05:30:25.622Z,23.76
2022-08-24T05:31:28.027Z,23.77
2022-08-24T05:32:30.744Z,23.78
2022-08-24T05:33:32.866Z,23.80
2022-08-24T05:34:34.478Z,23.82
2022-08-24T05:35:39.005Z,23.83
2022-08-24T05:36:45.552Z,23.85
2022-08-24T05:37:55.185Z,23.86
2022-08-24T05:39:01.298Z,23.88
2022-08-24T05:40:03.851Z,23.90
2022-08-24T05:41:06.038Z,23.91
2022-08-24T05:42:09.710Z,23.91
2022-08-24T05:43:18.151Z,23.94
2022-08-24T05:44:19.782Z,23.96
2022-08-24T05:45:22.238Z,23.95
2022-08-24T05:46:25.455Z,23.96
2022-08-24T05:47:27.504Z,23.97
2022-08-24T05:48:34.906Z,23.98
2022-08-24T05:49:42.879Z,24.00
2022-08-24T05:50:51.543Z,24.00
2022-08-24T05:51:53.363Z,24.02
2022-08-24T05:52:54.886Z,24.02
2022-08-24T05:53:56.916Z,24.04
2022-08-24T05:55:01.753Z,24.04
2022-08-24T05:56:06.770Z,24.06
2022-08-24T05:57:09.528Z,24.06
2022-08-24T05:58:31.146Z,24.07
2022-08-24T05:59:36.601Z,24.10
2022-08-24T06:00:46.772Z,24.10
2022-08-24T06:01:48.644Z,24.11
2022-08-24T06:02:52.922Z,24.11
2022-08-24T06:03:55.960Z,24.14
2022-08-24T06:04:58.409Z,24.15
2022-08-24T06:06:00.648Z,24.16
2022-08-24T06:07:02.573Z,24.18
2022-08-24T06:08:04.880Z,24.19
2022-08-24T06:09:06.840Z,24.21
2022-08-24T06:10:35.352Z,24.23
2022-08-24T06:11:34.653Z,24.25
2022-08-24T06:12:38.650Z,24.27
2022-08-24T06:13:40.510Z,24.29
2022-08-24T06:14:45.449Z,24.31
2022-08-24T06:16:04.875Z,24.32
2022-08-24T06:17:09.179Z,24.35
2022-08-24T06:18:11.814Z,24.37
2022-08-24T06:19:15.523Z,24.39
2022-08-24T06:20:17.378Z,24.43
2022-08-24T06:21:20.997Z,24.45
2022-08-24T06:22:22.718Z,24.48
2022-08-24T06:23:24.884Z,24.49
2022-08-24T06:24:52.106Z,24.52
2022-08-24T06:26:15.791Z,24.54
2022-08-24T06:27:23.314Z,24.56
2022-08-24T06:28:27.887Z,24.59
2022-08-24T06:29:29.934Z,24.59
2022-08-24T06:30:37.806Z,24.62
2022-08-24T06:32:05.416Z,24.66
2022-08-24T06:33:07.316Z,24.68
2022-08-24T06:34:15.704Z,24.69
2022-08-24T06:35:17.562Z,24.71
2022-08-24T06:36:22.738Z,24.74
2022-08-24T06:37:26.691Z,24.78
2022-08-24T06:38:30.861Z,24.79
2022-08-24T06:39:33.094Z,24.83
2022-08-24T06:40:36.328Z,24.86
2022-08-24T06:41:38.489Z,24.88
2022-08-24T06:42:44.160Z,24.92
2022-08-24T06:43:56.955Z,24.95
2022-08-24T06:45:03.196Z,25.00
2022-08-24T06:46:05.793Z,25.03
2022-08-24T06:47:14.322Z,25.06
2022-08-24T06:48:16.344Z,25.08
2022-08-24T06:49:19.215Z,25.12
2022-08-24T06:50:22.028Z,25.16
2022-08-24T06:51:26.167Z,25.19
2022-08-24T06:52:27.779Z,25.22
2022-08-24T06:53:29.590Z,25.25
2022-08-24T06:54:32.606Z,25.29
2022-08-24T06:55:34.148Z,25.32
2022-08-24T06:56:36.334Z,25.36
2022-08-24T06:57:37.869Z,25.38
2022-08-24T06:58:39.451Z,25.41
2022-08-24T06:59:45.868Z,25.45
2022-08-24T07:00:47.487Z,25.48
2022-08-24T07:01:49.213Z,25.51
2022-08-24T07:02:51.234Z,25.55
2022-08-24T07:03:53.481Z,25.58
2022-08-24T07:05:27.378Z,25.62
2022-08-24T07:06:47.336Z,25.66
2022-08-24T07:07:51.931Z,25.71
2022-08-24T07:08:53.967Z,25.75
2022-08-24T07:09:55.495Z,25.79
2022-08-24T07:10:57.060Z,25.82
2022-08-24T07:11:58.582Z,25.86
2022-08-24T07:13:00.392Z,25.88
2022-08-24T07:14:02.066Z,25.92
2022-08-24T07:15:04.069Z,25.97
2022-08-24T07:16:13.482Z,26.00
2022-08-24T07:17:16.566Z,26.04
2022-08-24T07:18:18.362Z,26.09
2022-08-24T07:19:22.751Z,26.14
2022-08-24T07:20:24.994Z,26.17
2022-08-24T07:21:42.563Z,26.21
2022-08-24T07:22:45.104Z,26.26
2022-08-24T07:23:49.547Z,26.29
2022-08-24T07:24:51.033Z,26.34
2022-08-24T07:25:56.142Z,26.39
2022-08-24T07:27:00.379Z,26.44
2022-08-24T07:28:04.684Z,26.48
2022-08-24T07:29:36.550Z,26.52
2022-08-24T07:30:33.923Z,26.59
2022-08-24T07:31:36.290Z,26.64
2022-08-24T07:32:49.322Z,26.69
2022-08-24T07:33:50.862Z,26.72
2022-08-24T07:34:52.427Z,26.77
2022-08-24T07:35:56.308Z,26.81
2022-08-24T07:37:00.431Z,26.85
2022-08-24T07:38:03.428Z,26.89
2022-08-24T07:39:05.767Z,26.93
2022-08-24T07:40:07.522Z,26.98
2022-08-24T07:41:36.476Z,27.04
2022-08-24T07:42:32.169Z,27.10
2022-08-24T07:43:35.287Z,27.14
2022-08-24T07:44:41.433Z,27.18
2022-08-24T07:45:43.628Z,27.22
2022-08-24T07:46:46.532Z,27.27
2022-08-24T07:49:31.366Z,27.38
2022-08-24T07:50:37.338Z,27.43
2022-08-24T07:51:39.343Z,27.48
2022-08-24T07:52:48.488Z,27.52
2022-08-24T07:53:53.990Z,27.57
2022-08-24T07:55:01.824Z,27.63
2022-08-24T07:56:03.627Z,27.66
2022-08-24T07:57:07.018Z,27.71
2022-08-24T07:58:09.108Z,27.74
2022-08-24T07:59:13.331Z,27.76
2022-08-24T08:00:16.647Z,27.83
2022-08-24T08:01:22.598Z,27.89
2022-08-24T08:02:25.030Z,27.93
2022-08-24T08:03:33.556Z,27.98
2022-08-24T08:04:35.111Z,28.02
2022-08-24T08:05:38.046Z,28.06
2022-08-24T08:06:40.973Z,28.11
2022-08-24T08:07:43.277Z,28.15
2022-08-24T08:08:45.127Z,28.19
2022-08-24T08:09:46.915Z,28.23
2022-08-24T08:10:50.402Z,28.28
2022-08-24T08:11:51.968Z,28.32
2022-08-24T08:12:54.219Z,28.38
2022-08-24T08:13:55.784Z,28.41
2022-08-24T08:14:59.090Z,28.46
2022-08-24T08:16:02.343Z,28.49
2022-08-24T08:17:06.844Z,28.53
2022-08-24T08:18:08.459Z,28.55
2022-08-24T08:19:12.334Z,28.57
2022-08-24T08:20:19.548Z,28.63
2022-08-24T08:21:40.362Z,28.67
2022-08-24T08:23:00.767Z,28.74
2022-08-24T08:24:17.977Z,28.80
2022-08-24T08:25:26.463Z,28.86
2022-08-24T08:26:28.044Z,28.89
2022-08-24T08:27:37.009Z,28.92
2022-08-24T08:28:38.868Z,28.96
2022-08-24T08:29:40.905Z,29.00
2022-08-24T08:30:42.888Z,29.04
2022-08-24T08:31:44.600Z,29.08
2022-08-24T08:32:46.387Z,29.12
2022-08-24T08:33:48.406Z,29.17
2022-08-24T08:34:50.098Z,29.22
2022-08-24T08:35:53.382Z,29.27
2022-08-24T08:36:55.232Z,29.31
2022-08-24T08:37:57.234Z,29.36
2022-08-24T08:38:58.867Z,29.39
2022-08-24T08:40:00.542Z,29.44
2022-08-24T08:41:04.778Z,29.50
2022-08-24T08:42:17.329Z,29.55
2022-08-24T08:43:40.384Z,29.62
2022-08-24T08:44:48.794Z,29.70
2022-08-24T08:46:12.657Z,29.75
2022-08-24T08:47:44.748Z,29.82
2022-08-24T08:49:07.412Z,29.88
2022-08-24T08:50:15.368Z,29.93
2022-08-24T08:51:16.995Z,29.98
2022-08-24T08:52:27.087Z,30.02
2022-08-24T08:53:34.580Z,30.08
2022-08-24T08:54:46.600Z,30.13
2022-08-24T08:56:08.581Z,30.19
2022-08-24T08:57:17.308Z,30.24
2022-08-24T08:58:24.518Z,30.30
2022-08-24T08:59:46.148Z,30.32
2022-08-24T09:00:56.743Z,30.37
2022-08-24T09:02:17.923Z,30.41
2022-08-24T09:03:30.522Z,30.45
2022-08-24T09:05:10.482Z,30.51
2022-08-24T09:06:20.901Z,30.55
2022-08-24T09:07:40.840Z,30.58
2022-08-24T09:08:51.952Z,30.63
2022-08-24T09:10:12.597Z,30.67
2022-08-24T09:11:33.595Z,30.73
2022-08-24T09:12:38.142Z,30.77
2022-08-24T09:13:42.692Z,30.82
2022-08-24T09:14:51.989Z,30.86
2022-08-24T09:15:57.466Z,30.89
2022-08-24T09:17:13.635Z,30.96
2022-08-24T09:18:15.483Z,31.01
2022-08-24T09:19:22.793Z,31.07
2022-08-24T09:20:27.574Z,31.09
2022-08-24T09:21:41.579Z,31.14
2022-08-24T09:22:43.658Z,31.19
2022-08-24T09:23:56.880Z,31.22
2022-08-24T09:25:03.608Z,31.26
2022-08-24T09:26:27.235Z,31.33
2022-08-24T09:27:32.634Z,31.38
2022-08-24T09:28:34.135Z,31.43
2022-08-24T09:29:42.868Z,31.48
2022-08-24T09:30:52.208Z,31.50
2022-08-24T09:31:53.731Z,31.54
2022-08-24T09:33:13.812Z,31.58
2022-08-24T09:34:34.214Z,31.63
2022-08-24T09:35:50.688Z,31.67
2022-08-24T09:36:53.735Z,31.74
2022-08-24T09:38:00.125Z,31.80
2022-08-24T09:39:10.746Z,31.84
2022-08-24T09:40:17.648Z,31.88
2022-08-24T09:41:19.261Z,31.94
2022-08-24T09:42:40.856Z,32.00
2022-08-24T09:43:51.953Z,32.08
2022-08-24T09:45:05.569Z,32.13
2022-08-24T09:46:13.630Z,32.24
2022-08-24T09:47:15.358Z,32.33
2022-08-24T09:48:33.743Z,32.35
2022-08-24T09:49:53.950Z,32.40
2022-08-24T09:50:55.474Z,32.48
2022-08-24T09:52:18.633Z,32.53
2022-08-24T09:53:38.602Z,32.60
2022-08-24T09:54:43.275Z,32.64
2022-08-24T09:56:03.359Z,32.68
2022-08-24T09:57:20.233Z,32.75
2022-08-24T09:58:29.750Z,32.81
2022-08-24T09:59:31.217Z,32.86
2022-08-24T10:00:34.596Z,32.90
2022-08-24T10:01:42.643Z,32.92
2022-08-24T10:02:59.374Z,32.98
2022-08-24T10:04:16.170Z,33.06
2022-08-24T10:05:33.433Z,33.13
2022-08-24T10:06:37.463Z,33.17
2022-08-24T10:07:42.033Z,33.27
2022-08-24T10:08:49.752Z,33.37
2022-08-24T10:09:51.294Z,33.41
2022-08-24T10:11:11.406Z,33.46
2022-08-24T10:12:19.054Z,33.55
2022-08-24T10:13:20.714Z,33.64
2022-08-24T10:14:25.114Z,33.70
2022-08-24T10:15:42.252Z,33.79
2022-08-24T10:16:43.813Z,33.90
2022-08-24T10:18:04.433Z,33.93
2022-08-24T10:19:06.084Z,33.94
2022-08-24T10:20:10.251Z,34.00
2022-08-24T10:21:20.429Z,34.07
2022-08-24T10:22:26.259Z,34.02
2022-08-24T10:23:42.467Z,34.05
2022-08-24T10:24:59.581Z,34.12
2022-08-24T10:26:22.225Z,34.14
2022-08-24T10:27:34.591Z,34.18
2022-08-24T10:28:45.150Z,34.23
2022-08-24T10:30:05.354Z,34.27
2022-08-24T10:31:12.906Z,34.35
2022-08-24T10:32:14.667Z,34.45
2022-08-24T10:33:19.734Z,34.48
2022-08-24T10:34:40.281Z,34.52
2022-08-24T10:36:00.351Z,34.59
2022-08-24T10:37:06.686Z,34.67
2022-08-24T10:38:38.847Z,34.74
2022-08-24T10:39:49.205Z,34.79
2022-08-24T10:41:06.060Z,34.93
2022-08-24T10:42:44.706Z,35.03
2022-08-24T10:43:46.351Z,35.01
2022-08-24T10:44:49.055Z,35.13
2022-08-24T10:46:12.089Z,35.20
2022-08-24T10:47:31.057Z,35.26
2022-08-24T10:48:33.275Z,35.31
2022-08-24T10:49:36.281Z,35.34
2022-08-24T10:50:56.712Z,35.36
2022-08-24T10:52:07.228Z,35.44
2022-08-24T10:53:17.541Z,35.47
2022-08-24T10:54:23.403Z,35.75
2022-08-24T10:55:28.695Z,35.87
2022-08-24T10:56:36.059Z,35.90
2022-08-24T10:57:41.738Z,35.96
2022-08-24T10:58:52.389Z,35.99
2022-08-24T11:00:22.721Z,36.01
2022-08-24T11:01:24.866Z,36.08
2022-08-24T11:02:26.553Z,36.16
2022-08-24T11:03:28.805Z,36.24
2022-08-24T11:04:30.832Z,36.36
2022-08-24T11:05:35.575Z,36.40
2022-08-24T11:06:44.159Z,36.51
2022-08-24T11:08:02.596Z,36.64
2022-08-24T11:09:14.812Z,36.78
2022-08-24T11:10:23.514Z,36.88
2022-08-24T11:11:34.283Z,36.95
2022-08-24T11:12:37.134Z,37.00
2022-08-24T11:13:49.569Z,37.05
2022-08-24T11:14:51.373Z,37.02
2022-08-24T11:16:00.304Z,37.20
2022-08-24T11:17:18.260Z,37.26
2022-08-24T11:18:20.202Z,37.32
2022-08-24T11:19:27.810Z,37.37
2022-08-24T11:20:29.338Z,37.43
2022-08-24T11:21:35.058Z,37.46
2022-08-24T11:22:40.609Z,37.48
2022-08-24T11:23:48.086Z,37.49
2022-08-24T11:24:49.562Z,37.50
2022-08-24T11:25:59.731Z,37.48
2022-08-24T11:27:16.696Z,37.42
2022-08-24T11:28:21.219Z,37.37
2022-08-24T11:29:26.113Z,37.34
2022-08-24T11:30:29.506Z,37.32
2022-08-24T11:31:35.933Z,37.28
2022-08-24T11:32:44.227Z,37.24
2022-08-24T11:33:46.637Z,37.22
2022-08-24T11:34:51.474Z,37.20
2022-08-24T11:35:53.005Z,37.21
2022-08-24T11:36:54.534Z,37.03
2022-08-24T11:37:57.259Z,37.18
2022-08-24T11:39:17.707Z,37.18
2022-08-24T11:40:20.335Z,37.16
2022-08-24T11:41:44.659Z,37.13
2022-08-24T11:42:52.345Z,37.12
2022-08-24T11:43:56.450Z,37.12
2022-08-24T11:45:01.652Z,37.13
2022-08-24T11:46:07.648Z,37.09
2022-08-24T11:47:14.880Z,37.09
2022-08-24T11:48:28.508Z,37.08
2022-08-24T11:49:34.201Z,37.06
2022-08-24T11:50:35.995Z,37.05
2022-08-24T11:51:37.675Z,37.00
2022-08-24T11:52:45.169Z,36.96
2022-08-24T11:54:05.206Z,36.94
2022-08-24T11:55:15.541Z,36.93
2022-08-24T11:56:25.551Z,36.93
2022-08-24T11:57:30.927Z,36.89
2022-08-24T11:58:32.703Z,36.87
2022-08-24T11:59:39.795Z,36.87
2022-08-24T12:00:48.084Z,36.88
2022-08-24T12:01:51.978Z,36.88
2022-08-24T12:03:04.390Z,36.89
2022-08-24T12:04:18.218Z,36.87
2022-08-24T12:05:38.542Z,36.79
2022-08-24T12:06:59.050Z,36.80
2022-08-24T12:08:00.523Z,36.81
2022-08-24T12:09:15.701Z,36.83
2022-08-24T12:10:20.401Z,36.82
2022-08-24T12:11:32.949Z,36.83
2022-08-24T12:12:34.418Z,36.84
2022-08-24T12:13:52.511Z,36.85
2022-08-24T12:15:00.360Z,36.78
2022-08-24T12:16:02.378Z,36.74
2022-08-24T12:17:22.369Z,36.73
2022-08-24T12:18:26.216Z,36.71
2022-08-24T12:19:29.563Z,36.72
2022-08-24T12:20:43.518Z,36.71
2022-08-24T12:21:51.497Z,36.72
2022-08-24T12:22:53.193Z,36.73
2022-08-24T12:23:59.047Z,36.73
2022-08-24T12:25:01.139Z,36.75
2022-08-24T12:26:07.996Z,36.77
2022-08-24T12:27:11.514Z,36.82
2022-08-24T12:28:13.151Z,36.80
2022-08-24T12:29:14.714Z,36.80
2022-08-24T12:30:16.391Z,36.82
2022-08-24T12:31:21.037Z,36.86
2022-08-24T12:32:27.008Z,36.89
2022-08-24T12:33:32.185Z,36.85
2022-08-24T12:34:54.188Z,36.89
2022-08-24T12:36:00.350Z,36.92
2022-08-24T12:37:20.559Z,36.96
2022-08-24T12:38:22.078Z,36.97
2022-08-24T12:39:26.061Z,36.99
2022-08-24T12:41:17.890Z,37.02
2022-08-24T12:42:40.014Z,37.04
2022-08-24T12:43:45.787Z,37.05
2022-08-24T12:44:49.519Z,37.06
2022-08-24T12:45:51.426Z,37.06
2022-08-24T12:46:53.316Z,37.02
2022-08-24T12:47:54.942Z,37.03
2022-08-24T12:49:04.200Z,37.05
2022-08-24T12:50:14.965Z,37.09
2022-08-24T12:51:22.348Z,37.10
2022-08-24T12:52:42.433Z,37.11
2022-08-24T12:53:55.077Z,37.11
2022-08-24T12:55:02.506Z,37.10
2022-08-24T12:56:22.618Z,37.12
2022-08-24T12:57:31.475Z,37.16
2022-08-24T12:58:53.931Z,37.16
2022-08-24T12:59:57.317Z,37.16
2022-08-24T13:01:02.706Z,37.16
2022-08-24T13:02:08.303Z,37.15
2022-08-24T13:03:24.437Z,37.13
2022-08-24T13:04:54.094Z,37.17
2022-08-24T13:05:57.060Z,37.16
2022-08-24T13:07:02.872Z,37.12
2022-08-24T13:08:16.178Z,37.13
2022-08-24T13:09:17.985Z,37.16
2022-08-24T13:10:26.032Z,37.15
2022-08-24T13:11:28.789Z,37.13
2022-08-24T13:12:30.258Z,37.15
2022-08-24T13:13:41.474Z,37.15
2022-08-24T13:14:43.079Z,37.11
2022-08-24T13:15:44.559Z,37.12
2022-08-24T13:16:52.132Z,37.13
2022-08-24T13:17:54.434Z,37.14
2022-08-24T13:19:10.448Z,37.11
2022-08-24T13:20:17.086Z,37.07
2022-08-24T13:21:34.635Z,37.06
2022-08-24T13:22:36.945Z,37.06
2022-08-24T13:23:39.105Z,37.05
2022-08-24T13:24:46.987Z,37.05
2022-08-24T13:25:51.508Z,37.04
2022-08-24T13:26:55.181Z,37.03
2022-08-24T13:28:07.461Z,37.02
2022-08-24T13:29:08.970Z,37.00
2022-08-24T13:30:20.948Z,36.98
2022-08-24T13:31:48.500Z,36.95
2022-08-24T13:32:55.849Z,36.98
2022-08-24T13:34:00.893Z,36.98
2022-08-24T13:35:22.403Z,36.96
2022-08-24T13:36:42.686Z,36.89
2022-08-24T13:37:44.229Z,36.85
2022-08-24T13:38:52.278Z,36.80
2022-08-24T13:40:09.722Z,36.80
2022-08-24T13:41:11.417Z,36.80
2022-08-24T13:42:16.602Z,36.80
2022-08-24T13:43:22.664Z,36.79
2022-08-24T13:44:27.039Z,36.78
2022-08-24T13:45:36.179Z,36.77
2022-08-24T13:46:37.714Z,36.74
2022-08-24T13:47:48.461Z,36.73
2022-08-24T13:48:58.595Z,36.75
2022-08-24T13:50:12.051Z,36.67
2022-08-24T13:51:16.809Z,36.59
2022-08-24T13:52:37.359Z,36.57
2022-08-24T13:53:46.660Z,36.59
2022-08-24T13:54:50.687Z,36.60
2022-08-24T13:55:53.101Z,36.63
2022-08-24T13:56:54.605Z,36.62
2022-08-24T13:58:02.458Z,36.61
2022-08-24T13:59:16.399Z,36.58
2022-08-24T14:00:36.371Z,36.56
2022-08-24T14:01:59.290Z,36.57
2022-08-24T14:03:06.906Z,36.61
2022-08-24T14:04:20.843Z,36.64
2022-08-24T14:05:43.553Z,36.66
2022-08-24T14:06:50.959Z,36.68
2022-08-24T14:08:16.331Z,36.64
2022-08-24T14:09:18.054Z,36.65
2022-08-24T14:10:25.894Z,36.68
2022-08-24T14:11:37.045Z,36.70
2022-08-24T14:12:57.121Z,36.73
2022-08-24T14:14:03.382Z,36.71